createdAt,value
2022-08-25T00:00:21.127Z,7.00
2022-08-25T00:00:51.686Z,7.80
2022-08-25T00:01:22.284Z,8.20
2022-08-25T00:01:53.124Z,5.30
2022-08-25T00:02:23.676Z,8.30
2022-08-25T00:02:56.025Z,6.50
2022-08-25T00:03:25.519Z,5.80
2022-08-25T00:03:56.039Z,7.10
2022-08-25T00:04:26.615Z,7.00
2022-08-25T00:04:57.191Z,8.40
2022-08-25T00:05:29.247Z,6.10
2022-08-25T00:05:58.557Z,8.20
2022-08-25T00:06:29.126Z,6.10
2022-08-25T00:07:03.166Z,8.00
2022-08-25T00:07:30.372Z,7.10
2022-08-25T00:08:01.012Z,6.50
2022-08-25T00:08:31.609Z,7.20
2022-08-25T00:09:02.162Z,5.80
2022-08-25T00:09:32.696Z,6.60
2022-08-25T00:10:03.296Z,6.20
2022-08-25T00:10:33.882Z,7.80
2022-08-25T00:11:04.440Z,7.10
2022-08-25T00:11:35.039Z,6.40
2022-08-25T00:12:05.594Z,9.60
2022-08-25T00:12:36.189Z,6.40
2022-08-25T00:13:06.741Z,6.80
2022-08-25T00:13:37.307Z,8.20
2022-08-25T00:14:07.863Z,6.50
2022-08-25T00:14:38.443Z,6.60
2022-08-25T00:15:09.013Z,6.90
2022-08-25T00:15:39.641Z,7.30
2022-08-25T00:16:10.329Z,7.30
2022-08-25T00:16:43.890Z,7.60
2022-08-25T00:17:11.816Z,7.70
2022-08-25T00:17:42.375Z,6.60
2022-08-25T00:18:19.519Z,5.60
2022-08-25T00:18:43.707Z,7.20
2022-08-25T00:19:14.242Z,6.20
2022-08-25T00:19:44.811Z,6.90
2022-08-25T00:20:15.356Z,7.40
2022-08-25T00:20:49.010Z,7.40
2022-08-25T00:21:16.649Z,7.00
2022-08-25T00:21:47.248Z,7.20
2022-08-25T00:22:17.789Z,8.20
2022-08-25T00:22:48.382Z,6.80
2022-08-25T00:23:18.961Z,6.90
2022-08-25T00:23:49.528Z,6.30
2022-08-25T00:24:20.139Z,6.80
2022-08-25T00:24:50.745Z,6.70
2022-08-25T00:25:21.318Z,6.80
2022-08-25T00:25:51.861Z,7.40
2022-08-25T00:26:22.417Z,7.10
2022-08-25T00:26:52.976Z,8.70
2022-08-25T00:27:23.556Z,6.00
2022-08-25T00:27:54.137Z,7.10
2022-08-25T00:28:24.670Z,6.70
2022-08-25T00:28:55.218Z,8.40
2022-08-25T00:29:25.995Z,5.80
2022-08-25T00:29:56.552Z,7.90
2022-08-25T00:30:27.118Z,8.00
2022-08-25T00:30:57.775Z,7.30
2022-08-25T00:31:38.324Z,9.10
2022-08-25T00:31:59.162Z,7.30
2022-08-25T00:32:29.710Z,8.80
2022-08-25T00:33:00.235Z,6.50
2022-08-25T00:33:30.773Z,8.00
2022-08-25T00:34:01.378Z,7.30
2022-08-25T00:34:31.931Z,7.90
2022-08-25T00:35:02.508Z,8.00
2022-08-25T00:35:33.102Z,7.30
2022-08-25T00:36:03.672Z,7.60
2022-08-25T00:36:34.245Z,8.10
2022-08-25T00:37:04.851Z,6.40
2022-08-25T00:37:35.426Z,6.80
2022-08-25T00:38:06.178Z,7.10
2022-08-25T00:38:36.852Z,7.70
2022-08-25T00:39:07.480Z,10.10
2022-08-25T00:39:38.055Z,7.20
2022-08-25T00:40:08.690Z,6.80
2022-08-25T00:40:39.244Z,8.00
2022-08-25T00:41:09.815Z,8.00
2022-08-25T00:41:40.383Z,9.40
2022-08-25T00:42:16.046Z,7.30
2022-08-25T00:42:41.740Z,7.80
2022-08-25T00:43:12.314Z,7.00
2022-08-25T00:43:42.955Z,7.80
2022-08-25T00:44:13.511Z,8.70
2022-08-25T00:44:44.173Z,8.30
2022-08-25T00:45:14.698Z,6.70
2022-08-25T00:45:45.254Z,9.00
2022-08-25T00:46:15.876Z,8.10
2022-08-25T00:46:46.559Z,9.50
2022-08-25T00:47:17.122Z,9.30
2022-08-25T00:47:47.729Z,7.50
2022-08-25T00:48:18.300Z,8.60
2022-08-25T00:48:48.923Z,7.10
2022-08-25T00:49:24.796Z,7.00
2022-08-25T00:49:50.256Z,8.20
2022-08-25T00:50:20.824Z,7.30
2022-08-25T00:50:51.433Z,7.30
2022-08-25T00:51:22.008Z,7.30
2022-08-25T00:51:52.604Z,7.80
2022-08-25T00:52:23.166Z,8.40
2022-08-25T00:52:53.741Z,8.90
2022-08-25T00:53:24.319Z,7.60
2022-08-25T00:53:54.872Z,8.70
2022-08-25T00:54:25.434Z,8.50
2022-08-25T00:54:56.008Z,6.40
2022-08-25T00:55:26.586Z,8.80
2022-08-25T00:55:57.163Z,8.60
2022-08-25T00:56:27.745Z,12.10
2022-08-25T00:56:58.367Z,9.10
2022-08-25T00:57:34.613Z,9.20
2022-08-25T00:57:59.803Z,7.80
2022-08-25T00:58:30.374Z,8.90
2022-08-25T00:59:00.947Z,8.10
2022-08-25T00:59:31.514Z,9.00
2022-08-25T01:00:02.108Z,8.10
2022-08-25T01:00:32.669Z,8.50
2022-08-25T01:01:03.312Z,7.40
2022-08-25T01:01:33.957Z,8.00
2022-08-25T01:02:04.595Z,8.00
2022-08-25T01:02:35.262Z,9.30
2022-08-25T01:03:05.902Z,8.10
2022-08-25T01:03:36.500Z,6.70
2022-08-25T01:04:07.063Z,7.20
2022-08-25T01:04:37.631Z,6.90
2022-08-25T01:05:08.190Z,9.10
2022-08-25T01:05:38.723Z,7.50
2022-08-25T01:06:09.281Z,10.40
2022-08-25T01:06:39.827Z,7.40
2022-08-25T01:07:10.425Z,7.40
2022-08-25T01:07:41.238Z,6.90
2022-08-25T01:08:11.990Z,8.50
2022-08-25T01:08:42.652Z,9.10
2022-08-25T01:09:13.219Z,7.50
2022-08-25T01:09:43.754Z,7.80
2022-08-25T01:10:14.332Z,8.70
2022-08-25T01:10:44.945Z,7.60
2022-08-25T01:11:15.511Z,8.00
2022-08-25T01:11:46.053Z,7.50
2022-08-25T01:12:16.608Z,7.70
2022-08-25T01:12:47.193Z,7.90
2022-08-25T01:13:17.750Z,7.50
2022-08-25T01:13:48.339Z,8.80
2022-08-25T01:14:18.920Z,8.10
2022-08-25T01:14:49.473Z,7.10
2022-08-25T01:15:20.035Z,9.10
2022-08-25T01:15:50.704Z,7.80
2022-08-25T01:16:21.277Z,8.10
2022-08-25T01:16:53.705Z,8.90
2022-08-25T01:17:22.507Z,9.90
2022-08-25T01:17:53.088Z,8.00
2022-08-25T01:18:23.683Z,9.50
2022-08-25T01:18:54.257Z,9.50
2022-08-25T01:19:24.828Z,6.90
2022-08-25T01:19:55.382Z,6.80
2022-08-25T01:20:29.405Z,7.50
2022-08-25T01:20:56.539Z,8.30
2022-08-25T01:21:27.090Z,8.90
2022-08-25T01:21:57.664Z,9.20
2022-08-25T01:22:28.228Z,7.90
2022-08-25T01:22:58.882Z,9.40
2022-08-25T01:23:29.424Z,8.40
2022-08-25T01:23:59.972Z,7.50
2022-08-25T01:24:30.528Z,8.10
2022-08-25T01:25:01.083Z,8.60
2022-08-25T01:25:31.657Z,7.70
2022-08-25T01:26:02.214Z,7.90
2022-08-25T01:26:32.822Z,11.10
2022-08-25T01:27:03.430Z,8.70
2022-08-25T01:27:34.003Z,9.40
2022-08-25T01:28:04.844Z,8.80
2022-08-25T01:28:35.550Z,9.90
2022-08-25T01:29:06.121Z,8.90
2022-08-25T01:29:36.681Z,9.80
2022-08-25T01:30:07.245Z,9.40
2022-08-25T01:30:37.834Z,7.70
2022-08-25T01:31:23.890Z,9.40
2022-08-25T01:31:39.236Z,9.70
2022-08-25T01:32:09.775Z,7.50
2022-08-25T01:32:40.358Z,8.90
2022-08-25T01:33:10.914Z,8.90
2022-08-25T01:33:41.492Z,10.50
2022-08-25T01:34:12.039Z,9.90
2022-08-25T01:34:42.628Z,9.90
2022-08-25T01:35:13.162Z,7.50
2022-08-25T01:35:43.759Z,8.70
2022-08-25T01:36:14.345Z,9.80
2022-08-25T01:36:44.872Z,9.90
2022-08-25T01:37:15.396Z,8.00
2022-08-25T01:37:45.956Z,8.30
2022-08-25T01:38:16.509Z,8.60
2022-08-25T01:38:47.080Z,7.80
2022-08-25T01:39:17.646Z,7.70
2022-08-25T01:39:48.316Z,10.10
2022-08-25T01:40:18.920Z,9.10
2022-08-25T01:40:49.533Z,9.10
2022-08-25T01:41:20.078Z,8.00
2022-08-25T01:41:51.473Z,8.20
2022-08-25T01:42:21.616Z,8.70
2022-08-25T01:42:52.173Z,6.60
2022-08-25T01:43:22.805Z,8.40
2022-08-25T01:43:53.353Z,8.90
2022-08-25T01:44:23.950Z,9.00
2022-08-25T01:44:54.499Z,9.20
2022-08-25T01:45:25.076Z,8.90
2022-08-25T01:45:55.954Z,9.20
2022-08-25T01:46:26.703Z,9.80
2022-08-25T01:46:57.313Z,8.00
2022-08-25T01:47:27.859Z,8.20
2022-08-25T01:47:58.404Z,9.20
2022-08-25T01:48:28.968Z,9.60
2022-08-25T01:49:02.745Z,9.20
2022-08-25T01:49:30.281Z,9.80
2022-08-25T01:50:00.881Z,9.40
2022-08-25T01:50:31.446Z,8.50
2022-08-25T01:51:02.020Z,8.60
2022-08-25T01:51:32.596Z,7.10
2022-08-25T01:52:03.149Z,8.30
2022-08-25T01:52:33.671Z,7.20
2022-08-25T01:53:04.274Z,9.40
2022-08-25T01:53:34.817Z,8.30
2022-08-25T01:54:05.369Z,7.80
2022-08-25T01:54:35.945Z,9.60
2022-08-25T01:55:06.536Z,9.80
2022-08-25T01:55:37.086Z,7.90
2022-08-25T01:56:09.649Z,9.90
2022-08-25T01:56:38.860Z,9.30
2022-08-25T01:57:09.440Z,8.00
2022-08-25T01:57:39.985Z,10.50
2022-08-25T01:58:10.549Z,11.40
2022-08-25T01:58:41.132Z,8.70
2022-08-25T01:59:11.708Z,10.10
2022-08-25T01:59:42.311Z,9.20
2022-08-25T02:00:12.845Z,7.90
2022-08-25T02:00:43.411Z,9.30
2022-08-25T02:01:14.067Z,9.40
2022-08-25T02:01:44.677Z,9.60
2022-08-25T02:02:15.329Z,9.90
2022-08-25T02:02:45.851Z,11.70
2022-08-25T02:03:18.730Z,10.20
2022-08-25T02:03:47.127Z,8.40
2022-08-25T02:04:18.113Z,10.40
2022-08-25T02:04:48.676Z,8.60
2022-08-25T02:05:23.393Z,8.80
2022-08-25T02:05:50.136Z,11.90
2022-08-25T02:06:20.920Z,8.50
2022-08-25T02:06:51.704Z,9.90
2022-08-25T02:07:22.266Z,10.30
2022-08-25T02:07:52.848Z,8.20
2022-08-25T02:08:23.413Z,10.80
2022-08-25T02:08:54.024Z,9.20
2022-08-25T02:09:24.594Z,10.10
2022-08-25T02:09:55.183Z,10.20
2022-08-25T02:10:26.128Z,11.40
2022-08-25T02:10:56.680Z,9.80
2022-08-25T02:11:27.265Z,8.80
2022-08-25T02:11:57.853Z,8.70
2022-08-25T02:12:28.437Z,10.10
2022-08-25T02:12:59.010Z,8.00
2022-08-25T02:13:31.388Z,8.40
2022-08-25T02:14:00.131Z,8.00
2022-08-25T02:14:30.666Z,9.20
2022-08-25T02:15:01.213Z,7.70
2022-08-25T02:15:31.758Z,8.50
2022-08-25T02:16:02.406Z,10.50
2022-08-25T02:16:33.033Z,9.10
2022-08-25T02:17:03.726Z,10.90
2022-08-25T02:17:34.317Z,11.80
2022-08-25T02:18:05.009Z,9.40
2022-08-25T02:18:35.673Z,10.30
2022-08-25T02:19:06.245Z,8.00
2022-08-25T02:19:36.808Z,9.10
2022-08-25T02:20:07.379Z,10.40
2022-08-25T02:20:37.928Z,10.00
2022-08-25T02:21:08.488Z,8.80
2022-08-25T02:21:39.065Z,9.40
2022-08-25T02:22:09.654Z,9.60
2022-08-25T02:22:40.235Z,9.10
2022-08-25T02:23:10.838Z,9.40
2022-08-25T02:23:41.416Z,10.60
2022-08-25T02:24:11.988Z,9.20
2022-08-25T02:24:42.538Z,9.00
2022-08-25T02:25:13.089Z,8.90
2022-08-25T02:25:43.649Z,9.00
2022-08-25T02:26:14.221Z,9.70
2022-08-25T02:26:44.794Z,11.20
2022-08-25T02:27:15.400Z,10.20
2022-08-25T02:27:45.971Z,8.80
2022-08-25T02:28:16.550Z,10.80
2022-08-25T02:28:47.092Z,9.20
2022-08-25T02:29:17.706Z,8.70
2022-08-25T02:29:48.275Z,10.10
2022-08-25T02:30:18.828Z,7.40
2022-08-25T02:30:49.481Z,10.90
2022-08-25T02:31:20.048Z,9.00
2022-08-25T02:31:50.587Z,9.50
2022-08-25T02:32:21.161Z,10.80
2022-08-25T02:32:51.714Z,9.80
2022-08-25T02:33:22.283Z,9.20
2022-08-25T02:33:52.828Z,10.00
2022-08-25T02:34:23.395Z,9.40
2022-08-25T02:34:53.941Z,10.80
2022-08-25T02:35:24.520Z,7.70
2022-08-25T02:35:55.094Z,10.20
2022-08-25T02:36:25.632Z,7.80
2022-08-25T02:36:56.233Z,11.40
2022-08-25T02:37:26.839Z,9.20
2022-08-25T02:37:57.391Z,8.80
2022-08-25T02:38:28.006Z,9.50
2022-08-25T02:38:58.560Z,10.00
2022-08-25T02:39:29.123Z,9.60
2022-08-25T02:39:59.779Z,11.10
2022-08-25T02:40:30.382Z,9.80
2022-08-25T02:41:00.958Z,11.20
2022-08-25T02:41:31.829Z,8.80
2022-08-25T02:42:02.443Z,10.10
2022-08-25T02:42:33.010Z,10.40
2022-08-25T02:43:03.606Z,9.00
2022-08-25T02:43:34.173Z,8.70
2022-08-25T02:44:04.751Z,9.50
2022-08-25T02:44:35.307Z,11.00
2022-08-25T02:45:05.885Z,10.00
2022-08-25T02:45:36.490Z,9.20
2022-08-25T02:46:07.084Z,11.50
2022-08-25T02:46:37.711Z,9.00
2022-08-25T02:47:08.257Z,8.50
2022-08-25T02:47:38.834Z,10.00
2022-08-25T02:48:09.442Z,8.80
2022-08-25T02:48:40.055Z,8.90
2022-08-25T02:49:10.631Z,10.70
2022-08-25T02:49:41.175Z,10.10
2022-08-25T02:50:12.008Z,9.60
2022-08-25T02:50:42.585Z,10.70
2022-08-25T02:51:13.186Z,8.30
2022-08-25T02:51:43.779Z,9.30
2022-08-25T02:52:14.347Z,12.00
2022-08-25T02:52:44.905Z,9.10
2022-08-25T02:53:15.445Z,9.70
2022-08-25T02:53:45.993Z,9.20
2022-08-25T02:54:16.564Z,10.50
2022-08-25T02:54:47.234Z,9.70
2022-08-25T02:55:17.796Z,10.00
2022-08-25T02:55:48.358Z,13.80
2022-08-25T02:56:18.957Z,10.60
2022-08-25T02:56:49.532Z,9.40
2022-08-25T02:57:20.119Z,9.90
2022-08-25T02:57:50.672Z,8.90
2022-08-25T02:58:21.224Z,10.00
2022-08-25T02:58:51.787Z,10.90
2022-08-25T02:59:22.341Z,10.80
2022-08-25T02:59:52.911Z,9.70
2022-08-25T03:00:23.490Z,11.00
2022-08-25T03:00:54.148Z,9.70
2022-08-25T03:01:28.564Z,10.50
2022-08-25T03:01:55.515Z,10.90
2022-08-25T03:02:26.075Z,12.30
2022-08-25T03:02:56.608Z,12.00
2022-08-25T03:03:27.196Z,10.30
2022-08-25T03:03:57.847Z,10.20
2022-08-25T03:04:28.413Z,12.80
2022-08-25T03:04:59.039Z,11.30
2022-08-25T03:05:29.645Z,12.50
2022-08-25T03:06:00.191Z,11.80
2022-08-25T03:06:30.778Z,11.10
2022-08-25T03:07:01.339Z,12.10
2022-08-25T03:07:31.922Z,12.30
2022-08-25T03:08:02.546Z,10.20
2022-08-25T03:08:33.103Z,11.90
2022-08-25T03:09:03.681Z,10.40
2022-08-25T03:09:34.315Z,10.40
2022-08-25T03:10:05.107Z,9.20
2022-08-25T03:10:35.672Z,10.10
2022-08-25T03:11:06.239Z,10.10
2022-08-25T03:11:36.784Z,11.00
2022-08-25T03:12:07.357Z,11.70
2022-08-25T03:12:37.943Z,9.70
2022-08-25T03:13:08.540Z,10.40
2022-08-25T03:13:39.401Z,15.10
2022-08-25T03:14:09.974Z,13.80
2022-08-25T03:14:40.653Z,12.20
2022-08-25T03:15:12.750Z,9.90
2022-08-25T03:15:42.062Z,9.60
2022-08-25T03:16:13.044Z,12.10
2022-08-25T03:16:46.306Z,11.90
2022-08-25T03:17:14.443Z,10.90
2022-08-25T03:17:45.681Z,9.30
2022-08-25T03:18:15.912Z,13.80
2022-08-25T03:18:46.722Z,10.30
2022-08-25T03:19:17.302Z,10.40
2022-08-25T03:19:47.910Z,10.50
2022-08-25T03:20:18.499Z,9.30
2022-08-25T03:20:49.053Z,10.60
2022-08-25T03:21:19.623Z,10.10
2022-08-25T03:21:50.156Z,8.90
2022-08-25T03:22:20.699Z,10.70
2022-08-25T03:22:51.263Z,11.70
2022-08-25T03:23:21.812Z,13.90
2022-08-25T03:23:52.386Z,9.70
2022-08-25T03:24:22.947Z,10.50
2022-08-25T03:24:53.523Z,9.90
2022-08-25T03:25:24.341Z,11.30
2022-08-25T03:25:54.925Z,9.70
2022-08-25T03:26:25.766Z,10.20
2022-08-25T03:26:56.369Z,11.10
2022-08-25T03:27:26.939Z,10.70
2022-08-25T03:27:57.521Z,9.40
2022-08-25T03:28:29.948Z,10.40
2022-08-25T03:28:58.696Z,11.40
2022-08-25T03:29:29.244Z,9.70
2022-08-25T03:29:59.826Z,11.50
2022-08-25T03:30:30.448Z,11.90
2022-08-25T03:31:01.050Z,9.50
2022-08-25T03:31:31.684Z,10.90
2022-08-25T03:32:02.299Z,11.40
2022-08-25T03:32:32.868Z,12.70
2022-08-25T03:33:03.434Z,9.10
2022-08-25T03:33:33.974Z,11.00
2022-08-25T03:34:04.556Z,8.90
2022-08-25T03:34:35.102Z,10.20
2022-08-25T03:35:05.657Z,11.00
2022-08-25T03:35:36.249Z,10.40
2022-08-25T03:36:06.833Z,11.30
2022-08-25T03:36:37.374Z,9.40
2022-08-25T03:37:07.966Z,11.10
2022-08-25T03:37:38.549Z,11.00
2022-08-25T03:38:09.104Z,10.10
2022-08-25T03:38:39.659Z,10.80
2022-08-25T03:39:10.223Z,13.90
2022-08-25T03:39:40.820Z,9.70
2022-08-25T03:40:15.324Z,11.90
2022-08-25T03:40:42.176Z,10.80
2022-08-25T03:41:12.754Z,11.70
2022-08-25T03:41:43.348Z,10.20
2022-08-25T03:42:13.913Z,9.80
2022-08-25T03:42:45.233Z,11.30
2022-08-25T03:43:15.355Z,14.50
2022-08-25T03:43:48.107Z,12.10
2022-08-25T03:44:16.742Z,11.40
2022-08-25T03:44:47.309Z,11.80
2022-08-25T03:45:17.876Z,12.20
2022-08-25T03:45:48.561Z,13.10
2022-08-25T03:46:19.298Z,13.30
2022-08-25T03:46:49.891Z,12.80
2022-08-25T03:47:20.454Z,12.60
2022-08-25T03:47:50.981Z,11.00
2022-08-25T03:48:21.529Z,9.50
2022-08-25T03:48:52.053Z,10.80
2022-08-25T03:49:22.585Z,10.50
2022-08-25T03:49:53.167Z,11.80
2022-08-25T03:50:23.713Z,10.60
2022-08-25T03:50:54.265Z,12.90
2022-08-25T03:51:24.853Z,12.80
2022-08-25T03:51:55.383Z,11.20
2022-08-25T03:52:25.995Z,10.00
2022-08-25T03:52:56.534Z,11.10
2022-08-25T03:53:27.105Z,11.50
2022-08-25T03:53:57.683Z,10.30
2022-08-25T03:54:28.259Z,10.50
2022-08-25T03:54:58.772Z,11.30
2022-08-25T03:55:29.861Z,10.20
2022-08-25T03:56:00.597Z,11.80
2022-08-25T03:56:31.253Z,12.10
2022-08-25T03:57:01.817Z,10.10
2022-08-25T03:57:32.339Z,12.90
2022-08-25T03:58:02.860Z,13.40
2022-08-25T03:58:33.879Z,12.90
2022-08-25T03:59:04.405Z,11.00
2022-08-25T03:59:35.503Z,10.20
2022-08-25T04:00:06.070Z,12.40
2022-08-25T04:00:36.625Z,10.40
2022-08-25T04:01:07.225Z,11.20
2022-08-25T04:01:37.809Z,10.60
2022-08-25T04:02:08.407Z,11.30
2022-08-25T04:02:39.068Z,12.10
2022-08-25T04:03:09.561Z,12.20
2022-08-25T04:03:40.575Z,10.00
2022-08-25T04:04:11.594Z,13.20
2022-08-25T04:04:42.599Z,10.80
2022-08-25T04:05:13.626Z,11.00
2022-08-25T04:05:44.295Z,9.50
2022-08-25T04:06:14.779Z,11.70
2022-08-25T04:06:45.813Z,12.70
2022-08-25T04:07:16.838Z,11.00
2022-08-25T04:07:47.852Z,10.50
2022-08-25T04:08:18.875Z,11.00
2022-08-25T04:08:49.611Z,13.20
2022-08-25T04:09:20.149Z,12.80
2022-08-25T04:09:51.179Z,12.10
2022-08-25T04:10:22.196Z,11.30
2022-08-25T04:10:53.247Z,12.10
2022-08-25T04:11:23.759Z,12.10
2022-08-25T04:11:54.301Z,14.50
2022-08-25T04:12:24.828Z,12.70
2022-08-25T04:12:55.864Z,12.50
2022-08-25T04:13:26.377Z,12.10
2022-08-25T04:13:57.413Z,11.40
2022-08-25T04:14:28.428Z,11.30
2022-08-25T04:14:58.950Z,10.80
2022-08-25T04:15:30.112Z,11.90
2022-08-25T04:16:00.831Z,13.00
2022-08-25T04:16:31.922Z,11.60
2022-08-25T04:17:02.487Z,13.40
2022-08-25T04:17:33.007Z,11.10
2022-08-25T04:18:03.713Z,10.70
2022-08-25T04:18:34.235Z,10.30
2022-08-25T04:19:05.265Z,12.80
2022-08-25T04:19:36.262Z,12.60
2022-08-25T04:20:06.807Z,11.40
2022-08-25T04:20:37.336Z,12.10
2022-08-25T04:21:08.345Z,11.70
2022-08-25T04:21:39.360Z,12.50
2022-08-25T04:22:09.903Z,11.20
2022-08-25T04:22:40.427Z,12.20
2022-08-25T04:23:11.367Z,13.80
2022-08-25T04:23:41.903Z,10.80
2022-08-25T04:24:12.916Z,11.70
2022-08-25T04:24:43.951Z,10.00
2022-08-25T04:25:14.978Z,11.40
2022-08-25T04:25:46.257Z,12.80
2022-08-25T04:26:16.831Z,11.40
2022-08-25T04:26:47.847Z,11.60
2022-08-25T04:27:18.382Z,11.10
2022-08-25T04:27:48.902Z,11.50
2022-08-25T04:28:19.950Z,11.70
2022-08-25T04:28:50.462Z,14.40
2022-08-25T04:29:23.669Z,14.20
2022-08-25T04:29:52.215Z,12.50
2022-08-25T04:30:22.746Z,12.10
2022-08-25T04:30:53.259Z,11.90
2022-08-25T04:31:24.348Z,11.10
2022-08-25T04:31:54.964Z,12.00
2022-08-25T04:32:25.468Z,11.30
2022-08-25T04:32:56.511Z,13.70
2022-08-25T04:33:27.164Z,12.90
2022-08-25T04:33:57.687Z,13.10
2022-08-25T04:34:31.162Z,12.80
2022-08-25T04:34:58.818Z,13.50
2022-08-25T04:35:29.857Z,13.40
2022-08-25T04:36:00.867Z,11.30
2022-08-25T04:36:31.914Z,10.60
2022-08-25T04:37:02.426Z,13.40
2022-08-25T04:37:33.537Z,10.50
2022-08-25T04:38:04.157Z,13.20
2022-08-25T04:38:34.775Z,12.40
2022-08-25T04:39:05.808Z,10.00
2022-08-25T04:39:36.842Z,10.10
2022-08-25T04:40:07.414Z,10.90
2022-08-25T04:41:07.740Z,10.40
2022-08-25T04:41:39.261Z,11.30
2022-08-25T04:42:10.304Z,13.30
2022-08-25T04:42:41.305Z,13.00
2022-08-25T04:43:12.340Z,12.90
2022-08-25T04:43:43.352Z,10.20
2022-08-25T04:44:14.866Z,12.80
2022-08-25T04:44:45.378Z,11.20
2022-08-25T04:45:15.913Z,13.60
2022-08-25T04:45:47.023Z,13.50
2022-08-25T04:46:20.455Z,12.40
2022-08-25T04:46:48.097Z,13.40
2022-08-25T04:47:18.633Z,11.80
2022-08-25T04:47:54.341Z,14.10
2022-08-25T04:48:19.869Z,12.80
2022-08-25T04:48:50.904Z,14.60
2022-08-25T04:49:21.954Z,10.00
2022-08-25T04:49:52.484Z,9.50
2022-08-25T04:50:23.509Z,12.50
2022-08-25T04:50:54.028Z,11.90
2022-08-25T04:51:24.692Z,11.20
2022-08-25T04:51:55.231Z,12.20
2022-08-25T04:52:25.755Z,11.70
2022-08-25T04:52:56.298Z,13.50
2022-08-25T04:53:26.856Z,11.60
2022-08-25T04:53:57.359Z,11.80
2022-08-25T04:54:27.881Z,10.40
2022-08-25T04:54:58.914Z,10.30
2022-08-25T04:55:29.434Z,11.90
2022-08-25T04:56:03.657Z,14.70
2022-08-25T04:56:31.389Z,11.40
2022-08-25T04:57:01.902Z,11.40
2022-08-25T04:57:32.930Z,11.30
2022-08-25T04:58:04.040Z,11.00
2022-08-25T04:58:34.584Z,10.40
2022-08-25T04:59:05.123Z,11.40
2022-08-25T04:59:36.152Z,10.90
2022-08-25T05:00:07.184Z,10.50
2022-08-25T05:00:37.715Z,11.40
2022-08-25T05:01:08.551Z,12.50
2022-08-25T05:01:39.088Z,11.60
2022-08-25T05:02:10.170Z,14.00
2022-08-25T05:02:40.670Z,11.00
2022-08-25T05:03:11.701Z,15.80
2022-08-25T05:03:42.716Z,10.80
2022-08-25T05:04:14.661Z,11.00
2022-08-25T05:04:44.535Z,11.00
2022-08-25T05:05:15.006Z,10.70
2022-08-25T05:05:46.032Z,10.40
2022-08-25T05:06:16.567Z,16.20
2022-08-25T05:06:47.078Z,12.60
2022-08-25T05:07:17.605Z,10.80
2022-08-25T05:07:48.649Z,10.70
2022-08-25T05:08:19.168Z,14.60
2022-08-25T05:08:49.684Z,9.90
2022-08-25T05:09:20.400Z,12.60
2022-08-25T05:09:51.266Z,13.00
2022-08-25T05:10:22.301Z,12.30
2022-08-25T05:10:53.064Z,11.80
2022-08-25T05:11:24.077Z,12.00
2022-08-25T05:11:54.873Z,12.70
2022-08-25T05:12:25.383Z,12.60
2022-08-25T05:12:56.342Z,13.70
2022-08-25T05:13:27.315Z,12.50
2022-08-25T05:13:58.349Z,10.60
2022-08-25T05:14:28.866Z,10.90
2022-08-25T05:14:59.412Z,12.40
2022-08-25T05:15:29.934Z,11.70
2022-08-25T05:16:01.021Z,11.70
2022-08-25T05:16:31.609Z,13.60
2022-08-25T05:17:02.150Z,15.40
2022-08-25T05:17:32.685Z,14.60
2022-08-25T05:18:03.208Z,13.20
2022-08-25T05:18:34.242Z,13.20
2022-08-25T05:19:05.278Z,11.20
2022-08-25T05:19:36.288Z,11.70
2022-08-25T05:20:07.289Z,14.10
2022-08-25T05:20:37.812Z,14.10
2022-08-25T05:21:08.845Z,12.50
2022-08-25T05:21:39.902Z,12.60
2022-08-25T05:22:10.399Z,12.80
2022-08-25T05:22:41.438Z,12.40
2022-08-25T05:23:12.468Z,13.10
2022-08-25T05:23:43.498Z,13.10
2022-08-25T05:24:14.559Z,12.80
2022-08-25T05:24:45.072Z,14.40
2022-08-25T05:25:15.622Z,14.70
2022-08-25T05:25:46.130Z,13.60
2022-08-25T05:26:20.489Z,14.60
2022-08-25T05:26:47.976Z,12.50
2022-08-25T05:27:18.991Z,14.10
2022-08-25T05:27:50.017Z,14.10
2022-08-25T05:28:21.043Z,12.90
2022-08-25T05:28:52.097Z,12.30
2022-08-25T05:29:22.632Z,14.40
2022-08-25T05:29:53.668Z,13.20
2022-08-25T05:30:24.205Z,14.00
2022-08-25T05:30:54.726Z,14.40
2022-08-25T05:31:25.389Z,13.80
2022-08-25T05:31:56.043Z,14.40
2022-08-25T05:32:26.608Z,14.10
2022-08-25T05:32:57.132Z,12.90
2022-08-25T05:33:27.687Z,14.30
2022-08-25T05:33:58.459Z,13.30
2022-08-25T05:34:28.981Z,13.90
2022-08-25T05:34:59.505Z,15.10
2022-08-25T05:35:30.504Z,14.10
2022-08-25T05:36:01.546Z,17.40
2022-08-25T05:36:32.606Z,12.60
2022-08-25T05:37:03.135Z,14.20
2022-08-25T05:37:33.652Z,14.80
2022-08-25T05:38:04.817Z,15.60
2022-08-25T05:38:35.421Z,12.60
2022-08-25T05:39:06.439Z,14.70
2022-08-25T05:39:37.454Z,17.40
2022-08-25T05:40:08.653Z,14.50
2022-08-25T05:40:39.142Z,13.60
2022-08-25T05:41:09.667Z,13.10
2022-08-25T05:41:40.697Z,13.00
2022-08-25T05:42:11.732Z,13.20
2022-08-25T05:42:42.252Z,12.20
2022-08-25T05:43:12.775Z,12.60
2022-08-25T05:43:43.812Z,14.30
2022-08-25T05:44:16.944Z,13.30
2022-08-25T05:44:45.074Z,14.00
2022-08-25T05:45:20.294Z,15.80
2022-08-25T05:45:47.077Z,13.30
2022-08-25T05:46:17.744Z,16.00
2022-08-25T05:46:48.242Z,14.50
2022-08-25T05:47:19.283Z,13.30
2022-08-25T05:47:49.793Z,15.50
2022-08-25T05:48:20.318Z,11.10
2022-08-25T05:48:51.360Z,15.20
2022-08-25T05:49:22.385Z,14.10
2022-08-25T05:49:53.425Z,13.70
2022-08-25T05:50:23.945Z,15.20
2022-08-25T05:50:54.485Z,13.20
2022-08-25T05:51:24.989Z,14.30
2022-08-25T05:51:56.025Z,12.30
2022-08-25T05:52:27.050Z,12.80
2022-08-25T05:52:57.567Z,11.50
2022-08-25T05:53:28.588Z,15.10
2022-08-25T05:53:59.484Z,11.80
2022-08-25T05:54:30.501Z,11.20
2022-08-25T05:55:01.541Z,12.50
2022-08-25T05:55:32.528Z,12.80
2022-08-25T05:56:03.587Z,10.80
2022-08-25T05:56:34.115Z,11.60
2022-08-25T05:57:04.648Z,14.70
2022-08-25T05:57:35.644Z,16.00
2022-08-25T05:58:06.227Z,11.90
2022-08-25T05:58:36.876Z,13.80
2022-08-25T05:59:09.609Z,13.40
2022-08-25T05:59:38.686Z,12.40
2022-08-25T06:00:09.708Z,14.90
2022-08-25T06:00:40.293Z,12.70
2022-08-25T06:01:10.903Z,14.20
2022-08-25T06:01:44.960Z,12.40
2022-08-25T06:02:12.110Z,15.70
2022-08-25T06:02:42.630Z,13.50
2022-08-25T06:03:13.735Z,14.80
2022-08-25T06:03:44.383Z,11.50
2022-08-25T06:04:14.925Z,10.20
2022-08-25T06:04:45.968Z,13.00
2022-08-25T06:05:16.998Z,10.50
2022-08-25T06:05:48.038Z,12.80
2022-08-25T06:06:18.615Z,11.30
2022-08-25T06:06:49.669Z,13.20
2022-08-25T06:07:20.188Z,12.70
2022-08-25T06:07:51.191Z,10.70
2022-08-25T06:08:22.194Z,12.80
2022-08-25T06:08:53.200Z,10.80
2022-08-25T06:09:24.300Z,10.20
2022-08-25T06:09:54.862Z,11.40
2022-08-25T06:10:25.390Z,13.90
2022-08-25T06:10:55.917Z,14.60
2022-08-25T06:11:26.475Z,14.70
2022-08-25T06:11:57.004Z,12.20
2022-08-25T06:12:27.517Z,13.20
2022-08-25T06:12:58.517Z,14.00
2022-08-25T06:13:29.142Z,13.20
2022-08-25T06:13:59.614Z,12.70
2022-08-25T06:14:30.655Z,12.50
2022-08-25T06:15:01.153Z,12.00
2022-08-25T06:15:32.184Z,13.70
2022-08-25T06:16:02.766Z,13.70
2022-08-25T06:16:33.386Z,12.20
2022-08-25T06:17:03.911Z,14.20
2022-08-25T06:17:34.932Z,12.90
2022-08-25T06:18:06.127Z,13.50
2022-08-25T06:18:36.701Z,12.80
2022-08-25T06:19:07.226Z,13.80
2022-08-25T06:19:38.261Z,12.80
2022-08-25T06:20:09.167Z,10.10
2022-08-25T06:20:40.132Z,14.50
2022-08-25T06:21:11.135Z,12.70
2022-08-25T06:21:42.128Z,11.90
2022-08-25T06:22:13.172Z,14.00
2022-08-25T06:22:43.694Z,13.60
2022-08-25T06:23:14.740Z,13.40
2022-08-25T06:23:45.752Z,15.40
2022-08-25T06:24:16.771Z,10.70
2022-08-25T06:24:47.806Z,15.60
2022-08-25T06:25:18.395Z,13.00
2022-08-25T06:25:48.934Z,14.20
2022-08-25T06:26:21.289Z,11.80
2022-08-25T06:26:50.469Z,12.50
2022-08-25T06:27:20.987Z,12.50
2022-08-25T06:27:51.512Z,12.00
2022-08-25T06:28:22.537Z,12.50
2022-08-25T06:28:53.539Z,12.90
2022-08-25T06:29:24.542Z,12.40
2022-08-25T06:29:56.151Z,13.60
2022-08-25T06:30:28.554Z,13.80
2022-08-25T06:30:57.203Z,11.50
2022-08-25T06:31:27.763Z,11.30
2022-08-25T06:31:58.363Z,11.70
2022-08-25T06:32:28.893Z,12.20
2022-08-25T06:32:59.914Z,14.60
2022-08-25T06:33:30.914Z,12.60
2022-08-25T06:34:01.926Z,12.50
2022-08-25T06:34:32.450Z,11.90
2022-08-25T06:35:03.498Z,13.10
2022-08-25T06:35:34.043Z,16.30
2022-08-25T06:36:04.804Z,12.20
2022-08-25T06:36:35.822Z,13.20
2022-08-25T06:37:06.845Z,12.50
2022-08-25T06:37:37.839Z,12.50
2022-08-25T06:38:08.875Z,13.70
2022-08-25T06:38:39.413Z,13.00
2022-08-25T06:39:10.617Z,13.70
2022-08-25T06:39:40.689Z,11.50
2022-08-25T06:40:11.777Z,13.30
2022-08-25T06:40:42.292Z,13.20
2022-08-25T06:41:13.305Z,15.10